Time;durP1;ratioP1;P1;durP2;ratioP2;P2;SDS_P1;SDS_P2;PMS_P1;PMS_P2;Temp;Humidity;BMP_temperature;BMP_pressure;BME280_temperature;BME280_humidity;BME280_pressure;Samples;Min_cycle;Max_cycle;Signal;HPM_P1;HPM_P2
2021/03/09 00:02:04;;;;;;;15.45;11.85;;;;;;;11.67;68.59;99958.50;5110349;28;20052;-75
2021/03/09 00:04:30;;;;;;;13.52;10.60;;;;;;;11.69;68.63;99968.06;5109996;28;20040;-74
2021/03/09 00:06:55;;;;;;;13.88;11.63;;;;;;;11.71;68.33;99962.13;5108745;28;20012;-75
2021/03/09 00:09:21;;;;;;;12.32;10.82;;;;;;;11.81;67.84;99961.47;5108607;28;20032;-73
2021/03/09 00:11:46;;;;;;;14.93;12.45;;;;;;;11.84;67.45;99968.31;5109170;28;20036;-76
2021/03/09 00:14:12;;;;;;;12.80;11.50;;;;;;;11.69;67.08;99965.28;5108889;28;20427;-77
2021/03/09 00:16:37;;;;;;;14.73;12.10;;;;;;;11.62;67.64;99961.59;5111005;28;20019;-75
2021/03/09 00:19:03;;;;;;;15.27;11.90;;;;;;;11.63;67.39;99966.78;5110000;28;20057;-79
2021/03/09 00:21:29;;;;;;;14.00;11.30;;;;;;;11.63;67.60;99961.22;5110464;28;20167;-77
2021/03/09 00:23:54;;;;;;;12.23;10.93;;;;;;;11.56;67.62;99966.69;5108900;28;20020;-79
2021/03/09 00:26:21;;;;;;;12.88;10.10;;;;;;;11.48;67.61;99954.63;5109376;28;20051;-78
2021/03/09 00:28:47;;;;;;;12.02;10.88;;;;;;;11.47;67.58;99964.16;5109617;28;20020;-74
2021/03/09 00:31:12;;;;;;;14.57;10.30;;;;;;;11.47;67.88;99972.53;5110091;28;20031;-75
2021/03/09 00:33:38;;;;;;;10.88;9.38;;;;;;;11.47;68.07;99964.16;5109953;28;20024;-77
2021/03/09 00:36:04;;;;;;;12.23;9.75;;;;;;;11.50;68.88;99971.78;5109833;28;20062;-77
2021/03/09 00:38:32;;;;;;;14.20;10.75;;;;;;;11.52;68.54;99971.41;5110706;28;20069;-73
2021/03/09 00:40:58;;;;;;;13.25;10.48;;;;;;;11.54;69.02;99972.63;5109900;28;20023;-73
2021/03/09 00:43:23;;;;;;;10.93;9.65;;;;;;;11.52;68.90;99963.84;5110443;28;20351;-73
2021/03/09 00:45:49;;;;;;;13.85;9.88;;;;;;;11.49;68.25;99961.78;5110583;28;20052;-74
2021/03/09 00:48:14;;;;;;;12.32;10.38;;;;;;;11.57;67.67;99964.72;5108249;28;20032;-75
2021/03/09 00:50:40;;;;;;;12.45;9.27;;;;;;;11.61;67.95;99955.22;5109784;28;20032;-78
2021/03/09 00:53:06;;;;;;;11.13;9.68;;;;;;;11.44;67.76;99945.41;5109281;28;20081;-75
2021/03/09 00:55:31;;;;;;;12.00;9.38;;;;;;;11.48;67.62;99948.25;5109467;28;20028;-79
2021/03/09 00:57:58;;;;;;;10.10;8.90;;;;;;;11.44;67.89;99953.75;5109396;28;20036;-77
2021/03/09 01:00:28;;;;;;;10.57;9.00;;;;;;;11.46;67.64;99951.41;5108719;28;20050;-77
2021/03/09 01:02:54;;;;;;;11.18;8.90;;;;;;;11.74;66.69;99950.22;5092287;28;20375;-75
2021/03/09 01:05:21;;;;;;;10.73;8.15;;;;;;;11.66;66.93;99952.09;5109296;28;20016;-75
2021/03/09 01:07:47;;;;;;;10.65;8.70;;;;;;;11.52;67.78;99957.47;5108867;28;20115;-74
2021/03/09 01:10:14;;;;;;;9.95;8.98;;;;;;;11.44;68.08;99947.38;5109593;28;20027;-75
2021/03/09 01:12:39;;;;;;;16.88;12.00;;;;;;;11.51;68.51;99945.53;5110190;28;20032;-75
2021/03/09 01:15:07;;;;;;;14.20;9.50;;;;;;;11.58;67.62;99949.59;5109147;28;20143;-73
2021/03/09 01:17:33;;;;;;;10.20;8.52;;;;;;;11.61;67.46;99948.81;5108753;28;20055;-78
2021/03/09 01:19:58;;;;;;;12.30;9.98;;;;;;;11.44;67.82;99934.25;5092323;28;20462;-75
2021/03/09 01:22:24;;;;;;;10.77;8.02;;;;;;;11.41;68.14;99940.59;5108714;28;20051;-78
2021/03/09 01:24:50;;;;;;;10.63;8.40;;;;;;;11.44;68.60;99939.03;5109467;28;20028;-79
2021/03/09 01:27:17;;;;;;;10.90;8.75;;;;;;;11.56;67.76;99933.25;5110094;28;20028;-79
2021/03/09 01:29:42;;;;;;;9.63;8.63;;;;;;;11.41;68.64;99932.22;5109168;28;20090;-79
2021/03/09 01:32:09;;;;;;;15.77;9.48;;;;;;;11.34;68.37;99922.94;5108877;28;20039;-79
2021/03/09 01:34:35;;;;;;;9.50;8.15;;;;;;;11.50;67.70;99927.22;5107458;28;20024;-80
2021/03/09 01:37:00;;;;;;;11.70;9.60;;;;;;;11.64;67.69;99920.22;5108053;28;20039;-80
2021/03/09 01:39:26;;;;;;;13.18;8.50;;;;;;;11.60;67.67;99914.59;5105165;28;20024;-78
2021/03/09 01:41:51;;;;;;;9.60;8.18;;;;;;;11.40;67.99;99915.88;5106616;28;20360;-79
2021/03/09 01:44:17;;;;;;;8.43;7.60;;;;;;;11.43;68.50;99918.72;5109852;28;20031;-74
2021/03/09 01:46:46;;;;;;;8.85;7.68;;;;;;;11.42;68.58;99913.53;5111671;28;20033;-74
2021/03/09 01:49:14;;;;;;;10.40;8.20;;;;;;;11.37;68.83;99906.28;5112678;28;20027;-78
2021/03/09 01:51:42;;;;;;;8.48;7.68;;;;;;;11.39;68.23;99917.06;5112631;28;20050;-73
2021/03/09 01:54:09;;;;;;;9.07;8.13;;;;;;;11.37;68.60;99900.72;5112293;28;20024;-78
2021/03/09 01:56:35;;;;;;;8.55;7.65;;;;;;;11.37;68.16;99899.94;5112011;28;20088;-74
2021/03/09 01:59:01;;;;;;;9.93;8.93;;;;;;;11.30;68.71;99889.50;5112465;28;20032;-75
2021/03/09 02:01:27;;;;;;;9.48;8.30;;;;;;;11.34;68.65;99901.47;5111511;28;20028;-78
2021/03/09 02:03:53;;;;;;;12.73;8.02;;;;;;;11.31;68.90;99901.44;5111944;28;20100;-78
2021/03/09 02:06:19;;;;;;;11.35;8.70;;;;;;;11.32;68.98;99909.41;5114335;28;20083;-80
2021/03/09 02:08:45;;;;;;;9.32;8.40;;;;;;;11.24;69.70;99877.88;5113519;28;20028;-79
2021/03/09 02:11:50;;;;;;;8.60;7.68;;;;;;;11.30;69.07;99883.13;5112163;28;20039;-76
2021/03/09 02:14:25;;;;;;;;;;;;;;;11.37;68.15;99895.16;5108860;28;20099;-79
2021/03/09 02:17:03;;;;;;;10.50;8.23;;;;;;;11.35;68.90;99894.75;5112369;28;20369;-75
2021/03/09 02:19:50;;;;;;;9.48;8.20;;;;;;;11.33;68.38;99880.38;5111884;28;20024;-77
2021/03/09 02:22:23;;;;;;;9.82;8.82;;;;;;;11.40;68.70;99883.28;5112105;28;20024;-74
2021/03/09 02:25:26;;;;;;;8.18;7.22;;;;;;;11.35;68.76;99880.81;5111853;28;20020;-78
2021/03/09 02:28:20;;;;;;;10.10;7.82;;;;;;;11.20;69.22;99878.97;5111464;28;20075;-79
2021/03/09 02:30:48;;;;;;;9.50;7.60;;;;;;;11.21;68.72;99875.81;5111721;28;20024;-78
2021/03/09 02:33:24;;;;;;;8.55;7.50;;;;;;;11.18;68.76;99868.19;5110668;28;20408;-78
2021/03/09 02:36:00;;;;;;;11.10;8.70;;;;;;;11.12;68.71;99871.69;5110865;28;20023;-78
2021/03/09 02:38:32;;;;;;;9.60;7.78;;;;;;;11.18;69.48;99861.81;5110044;28;20031;-75
2021/03/09 02:41:00;;;;;;;10.55;8.23;;;;;;;11.27;68.72;99870.72;5109771;28;20027;-74
2021/03/09 02:43:30;;;;;;;9.70;7.78;;;;;;;11.22;69.05;99873.84;5110131;28;20024;-74
2021/03/09 02:46:01;;;;;;;11.55;8.75;;;;;;;11.22;69.74;99868.25;5110016;28;20039;-79
2021/03/09 02:48:28;;;;;;;9.35;8.30;;;;;;;11.40;69.12;99868.50;5109694;28;20008;-75
2021/03/09 02:50:58;;;;;;;8.13;6.85;;;;;;;11.39;68.71;99862.16;5109042;28;20028;-74
2021/03/09 02:53:28;;;;;;;9.35;8.23;;;;;;;11.20;69.30;99862.28;5109829;28;20062;-74
2021/03/09 02:55:56;;;;;;;11.90;8.48;;;;;;;11.20;69.33;99863.06;5109427;28;20131;-78
2021/03/09 02:58:22;;;;;;;10.20;7.82;;;;;;;11.18;70.25;99864.63;5110076;28;20040;-73
2021/03/09 03:00:52;;;;;;;10.95;7.82;;;;;;;11.24;70.08;99861.16;5111053;28;20463;-74
2021/03/09 03:03:19;;;;;;;9.25;6.68;;;;;;;11.24;69.67;99846.44;5109675;28;20059;-78
2021/03/09 03:05:46;;;;;;;11.65;6.72;;;;;;;11.18;69.98;99845.91;5110755;28;20024;-74
2021/03/09 03:08:13;;;;;;;7.78;6.85;;;;;;;11.16;70.28;99847.50;5110642;28;20024;-78
2021/03/09 03:10:50;;;;;;;6.97;6.28;;;;;;;11.12;70.49;99843.84;5110057;28;20062;-74
2021/03/09 03:13:18;;;;;;;8.00;7.22;;;;;;;11.15;70.73;99834.75;5111504;28;20091;-74
2021/03/09 03:15:48;;;;;;;12.05;9.13;;;;;;;11.15;71.04;99831.97;5110403;28;20050;-74
2021/03/09 03:18:17;;;;;;;13.82;10.15;;;;;;;11.16;71.03;99839.13;5093851;28;20066;-72
2021/03/09 03:20:44;;;;;;;10.27;9.20;;;;;;;11.13;70.93;99839.88;5110347;28;20114;-77
2021/03/09 03:23:11;;;;;;;19.50;10.50;;;;;;;11.17;70.71;99840.75;5110345;28;20113;-75
2021/03/09 03:25:37;;;;;;;37.83;22.60;;;;;;;11.20;70.66;99845.56;5108899;28;20028;-77
2021/03/09 03:28:07;;;;;;;28.77;18.80;;;;;;;11.10;71.02;99851.78;5109900;28;20115;-74
2021/03/09 03:30:33;;;;;;;32.75;22.20;;;;;;;11.06;71.25;99845.34;5092271;28;20032;-78
2021/03/09 03:32:58;;;;;;;42.20;30.17;;;;;;;11.13;71.37;99849.06;5110032;28;20466;-73
2021/03/09 03:35:24;;;;;;;55.20;41.03;;;;;;;11.10;71.38;99846.22;5109075;28;20024;-76
2021/03/09 03:37:50;;;;;;;52.83;40.08;;;;;;;11.10;71.59;99844.22;5109622;28;20036;-79
2021/03/09 03:40:21;;;;;;;28.45;20.90;;;;;;;11.22;71.08;99840.41;5109469;28;20462;-77
2021/03/09 03:42:47;;;;;;;31.27;24.67;;;;;;;10.99;71.67;99826.56;5109448;28;20028;-74
2021/03/09 03:45:16;;;;;;;21.40;17.83;;;;;;;11.01;71.84;99844.47;5106957;28;20393;-76
2021/03/09 03:47:42;;;;;;;17.33;13.90;;;;;;;11.07;71.79;99846.94;5109786;28;20088;-75
2021/03/09 03:50:10;;;;;;;13.20;10.95;;;;;;;11.10;71.28;99840.63;5108837;28;20012;-73
2021/03/09 03:52:39;;;;;;;12.32;8.60;;;;;;;11.08;71.06;99843.81;5110411;28;20039;-75
2021/03/09 03:55:28;;;;;;;7.50;6.50;;;;;;;11.23;70.22;99844.81;5108730;28;20024;-76
2021/03/09 03:57:55;;;;;;;16.90;8.88;;;;;;;11.20;70.67;99845.56;5109905;28;20077;-79
2021/03/09 04:00:22;;;;;;;10.38;8.23;;;;;;;11.19;70.93;99843.97;5108647;28;20058;-78
2021/03/09 04:02:52;;;;;;;8.90;7.93;;;;;;;11.19;70.74;99847.56;5093239;28;20052;-78
2021/03/09 04:05:21;;;;;;;10.10;8.98;;;;;;;11.22;70.99;99845.97;5109051;28;20008;-75
2021/03/09 04:07:50;;;;;;;13.10;10.20;;;;;;;11.21;71.00;99847.16;5110209;28;20032;-79
2021/03/09 04:10:18;;;;;;;18.58;14.35;;;;;;;11.27;70.75;99859.59;5109457;28;20023;-79
2021/03/09 04:12:44;;;;;;;18.50;13.35;;;;;;;11.20;70.96;99851.13;5092073;28;20024;-74
2021/03/09 04:15:15;;;;;;;14.10;10.70;;;;;;;11.26;71.02;99855.19;5108147;28;20058;-74
2021/03/09 04:17:42;;;;;;;12.80;9.27;;;;;;;11.28;71.07;99842.50;5107434;28;20067;-79
2021/03/09 04:20:10;;;;;;;12.38;8.13;;;;;;;11.31;70.83;99846.53;5108724;28;20047;-74
2021/03/09 04:22:39;;;;;;;14.95;11.90;;;;;;;11.24;71.27;99836.09;5108242;28;20031;-75
2021/03/09 04:25:06;;;;;;;9.77;8.77;;;;;;;11.31;71.20;99845.72;5108705;28;20032;-78
2021/03/09 04:27:32;;;;;;;10.75;8.25;;;;;;;11.29;70.10;99834.94;5108155;28;20027;-78
2021/03/09 04:29:59;;;;;;;13.60;10.07;;;;;;;11.28;71.27;99841.69;5106972;28;20080;-79
2021/03/09 04:32:26;;;;;;;12.80;11.30;;;;;;;11.22;71.27;99844.00;5107493;28;20024;-78
2021/03/09 04:34:53;;;;;;;16.20;11.77;;;;;;;11.16;71.45;99839.13;5092229;28;20084;-78
2021/03/09 04:37:19;;;;;;;15.27;12.20;;;;;;;11.18;71.22;99845.13;5106815;28;20039;-79
2021/03/09 04:39:48;;;;;;;15.00;11.00;;;;;;;11.22;71.72;99854.34;5106866;28;20088;-78
2021/03/09 04:42:16;;;;;;;12.15;10.27;;;;;;;11.28;71.20;99847.25;5107556;28;20085;-76
2021/03/09 04:44:42;;;;;;;13.27;10.13;;;;;;;11.23;71.65;99842.00;5108350;28;20012;-79
2021/03/09 04:47:08;;;;;;;10.77;9.18;;;;;;;11.21;71.57;99842.41;5108464;28;20043;-76
2021/03/09 04:49:36;;;;;;;12.70;8.95;;;;;;;11.24;71.36;99846.44;5091488;28;20077;-79
2021/03/09 04:52:02;;;;;;;15.00;10.95;;;;;;;11.19;72.00;99843.97;5108972;28;20080;-77
2021/03/09 04:54:34;;;;;;;15.18;10.82;;;;;;;11.22;71.38;99838.44;5109058;28;20008;-76
2021/03/09 04:57:00;;;;;;;14.88;10.07;;;;;;;11.32;71.14;99836.19;5108691;28;20028;-74
2021/03/09 04:59:25;;;;;;;16.05;10.80;;;;;;;11.26;71.08;99841.28;5108766;28;20035;-79
2021/03/09 05:01:51;;;;;;;11.68;10.38;;;;;;;11.23;71.12;99831.69;5109804;28;20105;-77
2021/03/09 05:04:16;;;;;;;11.27;9.80;;;;;;;11.24;71.40;99849.22;5111390;28;20027;-75
2021/03/09 05:06:42;;;;;;;8.88;7.97;;;;;;;11.25;71.63;99839.69;5111180;28;20024;-73
2021/03/09 05:09:07;;;;;;;17.92;10.98;;;;;;;11.21;71.71;99836.03;5110438;28;20039;-77
2021/03/09 05:11:33;;;;;;;18.13;11.18;;;;;;;11.25;71.55;99845.25;5110426;28;20032;-75
2021/03/09 05:13:59;;;;;;;13.68;11.15;;;;;;;11.30;71.65;99839.34;5111167;28;20020;-75
2021/03/09 05:16:25;;;;;;;12.38;9.93;;;;;;;11.24;71.24;99836.09;5112173;28;20028;-73
2021/03/09 05:18:51;;;;;;;10.90;9.80;;;;;;;11.32;71.75;99836.19;5115678;28;20023;-77
2021/03/09 05:21:17;;;;;;;11.23;9.85;;;;;;;11.26;71.69;99832.91;5114287;28;20355;-74
2021/03/09 05:23:43;;;;;;;15.75;10.02;;;;;;;11.22;71.58;99826.50;5114564;28;20039;-74
2021/03/09 05:26:09;;;;;;;14.27;9.95;;;;;;;11.23;71.93;99825.31;5115290;28;20046;-75
2021/03/09 05:28:35;;;;;;;13.93;9.07;;;;;;;11.20;71.52;99828.84;5115375;28;20016;-74
2021/03/09 05:31:01;;;;;;;10.52;8.48;;;;;;;11.22;71.73;99830.06;5115852;28;20444;-74
2021/03/09 05:33:27;;;;;;;10.55;8.70;;;;;;;11.24;72.13;99826.94;5115651;28;20050;-73
2021/03/09 05:35:53;;;;;;;10.93;7.38;;;;;;;11.30;71.30;99822.66;5115544;28;20035;-73
2021/03/09 05:38:18;;;;;;;14.00;7.65;;;;;;;11.31;70.83;99826.22;5114886;28;20028;-74
2021/03/09 05:40:44;;;;;;;10.68;7.40;;;;;;;11.25;70.30;99820.19;5114289;28;20031;-73
2021/03/09 05:43:10;;;;;;;10.15;7.30;;;;;;;11.24;71.20;99824.94;5117178;28;20082;-79
2021/03/09 05:45:36;;;;;;;13.27;8.25;;;;;;;11.45;70.21;99830.03;5116300;28;20031;-73
2021/03/09 05:48:03;;;;;;;9.10;7.00;;;;;;;11.38;69.33;99821.53;5116356;28;20056;-76
2021/03/09 05:50:28;;;;;;;8.57;7.50;;;;;;;11.37;70.29;99824.72;5116173;28;20118;-76
2021/03/09 05:52:54;;;;;;;10.38;8.57;;;;;;;11.47;70.02;99822.06;5115356;28;20036;-77
2021/03/09 05:55:20;;;;;;;8.88;6.43;;;;;;;11.43;69.94;99826.78;5114587;28;20061;-77
2021/03/09 05:57:46;;;;;;;7.80;6.28;;;;;;;11.42;70.06;99825.19;5114539;28;20095;-76
2021/03/09 06:00:12;;;;;;;7.93;7.13;;;;;;;11.40;69.81;99824.78;5114598;28;20024;-74
2021/03/09 06:02:39;;;;;;;9.02;7.03;;;;;;;11.40;70.01;99823.94;5110527;28;20494;-74
2021/03/09 06:05:07;;;;;;;10.02;7.13;;;;;;;11.40;69.43;99833.13;5111558;28;20103;-75
2021/03/09 06:07:35;;;;;;;11.40;6.47;;;;;;;11.52;70.03;99824.53;5109114;28;20028;-73
2021/03/09 06:10:01;;;;;;;11.70;7.30;;;;;;;11.71;69.21;99825.56;5108070;28;20036;-75
2021/03/09 06:12:27;;;;;;;12.98;6.95;;;;;;;11.73;69.24;99828.78;5107969;28;20031;-74
2021/03/09 06:14:55;;;;;;;10.90;6.85;;;;;;;11.69;69.25;99830.72;5107913;28;20028;-74
2021/03/09 06:17:32;;;;;;;8.65;7.15;;;;;;;11.61;69.91;99829.84;5108380;28;20031;-75
2021/03/09 06:19:57;;;;;;;14.40;7.35;;;;;;;11.61;70.19;99826.22;5110751;28;20032;-74
2021/03/09 06:22:46;;;;;;;13.60;8.48;;;;;;;11.69;69.72;99828.72;5109322;28;20098;-75
2021/03/09 06:25:20;;;;;;;12.40;8.02;;;;;;;11.72;69.97;99830.78;5110851;28;20020;-78
2021/03/09 06:27:49;;;;;;;12.48;8.60;;;;;;;11.98;68.69;99823.50;5094533;28;20039;-74
2021/03/09 06:30:36;;;;;;;10.07;8.23;;;;;;;11.79;69.78;99821.69;5108348;28;20023;-74
2021/03/09 06:33:06;;;;;;;15.77;7.47;;;;;;;11.76;69.73;99831.59;5111645;28;20028;-78
2021/03/09 06:35:35;;;;;;;8.70;7.60;;;;;;;11.66;69.70;99820.31;5107875;28;20047;-75
2021/03/09 06:38:27;;;;;;;9.93;7.45;;;;;;;11.69;70.16;99827.94;5111909;28;20024;-78
2021/03/09 06:41:14;;;;;;;9.77;7.65;;;;;;;11.58;69.44;99807.50;5111436;28;20024;-79
2021/03/09 06:43:42;;;;;;;9.70;7.18;;;;;;;11.70;70.94;99838.69;5110894;28;20024;-74
2021/03/09 06:46:16;;;;;;;15.50;8.15;;;;;;;11.78;70.15;99832.03;5093136;28;20036;-79
2021/03/09 06:48:47;;;;;;;12.25;8.07;;;;;;;11.72;70.65;99827.19;5109366;28;20038;-73
2021/03/09 06:51:31;;;;;;;12.30;9.38;;;;;;;11.61;71.30;99806.72;5106431;28;20032;-75
2021/03/09 06:54:08;;;;;;;11.20;8.07;;;;;;;11.72;70.53;99824.41;5109860;28;20031;-74
2021/03/09 06:56:38;;;;;;;14.45;9.27;;;;;;;11.74;71.52;99824.81;5109845;28;20020;-73
2021/03/09 06:59:26;;;;;;;13.93;9.20;;;;;;;11.80;71.47;99823.28;5109598;28;20360;-77
2021/03/09 07:02:17;;;;;;;11.05;8.80;;;;;;;11.85;72.43;99822.97;5110328;28;20059;-74
2021/03/09 07:04:51;;;;;;;15.15;8.90;;;;;;;11.87;72.66;99822.59;5101415;28;20385;-74
2021/03/09 07:07:38;;;;;;;15.00;9.57;;;;;;;11.93;72.41;99821.91;5111558;28;20126;-74
2021/03/09 07:10:18;;;;;;;13.70;8.65;;;;;;;11.85;72.58;99825.78;5112671;28;20028;-75
2021/03/09 07:12:56;;;;;;;10.90;8.85;;;;;;;11.93;72.16;99821.06;5113783;28;20031;-74
2021/03/09 07:15:24;;;;;;;12.02;9.13;;;;;;;12.08;73.03;99817.25;5108988;28;20085;-74
2021/03/09 07:17:53;;;;;;;14.38;9.27;;;;;;;12.09;71.82;99813.31;5112074;28;20034;-73
2021/03/09 07:20:19;;;;;;;19.58;11.00;;;;;;;12.23;71.90;99813.44;5111985;28;20171;-79
2021/03/09 07:22:45;;;;;;;14.10;10.00;;;;;;;12.40;72.60;99814.78;5113066;28;20020;-73
2021/03/09 07:25:16;;;;;;;14.90;10.45;;;;;;;12.38;72.09;99819.16;5112524;28;20115;-77
2021/03/09 07:27:51;;;;;;;12.13;8.98;;;;;;;12.36;72.13;99818.72;5095826;28;20008;-74
2021/03/09 07:30:22;;;;;;;11.45;9.55;;;;;;;12.31;72.01;99825.47;5112020;28;20457;-73
2021/03/09 07:32:50;;;;;;;12.45;10.63;;;;;;;12.33;72.63;99818.31;5112559;28;20066;-74
2021/03/09 07:35:22;;;;;;;14.18;9.38;;;;;;;12.32;72.77;99827.09;5111661;28;20088;-73
2021/03/09 07:37:50;;;;;;;12.20;9.60;;;;;;;12.20;72.57;99827.38;5112477;28;20024;-73
2021/03/09 07:40:19;;;;;;;16.42;9.20;;;;;;;12.16;72.49;99834.88;5111602;28;20055;-78
2021/03/09 07:42:45;;;;;;;18.45;9.68;;;;;;;12.13;72.44;99830.06;5109900;28;20031;-73
2021/03/09 07:45:17;;;;;;;15.73;10.55;;;;;;;12.10;73.24;99826.06;5110179;28;20028;-73
2021/03/09 07:47:51;;;;;;;15.15;10.43;;;;;;;12.07;73.01;99827.59;5110130;28;20515;-74
2021/03/09 07:50:19;;;;;;;13.93;10.30;;;;;;;12.05;74.05;99827.19;5109680;28;20027;-73
2021/03/09 07:53:12;;;;;;;12.27;10.20;;;;;;;12.06;73.63;99823.22;5110427;28;20027;-73
2021/03/09 07:55:45;;;;;;;17.50;12.00;;;;;;;12.03;74.09;99820.38;5111293;28;20035;-73
2021/03/09 07:58:20;;;;;;;15.88;11.68;;;;;;;12.00;74.02;99819.19;5110763;28;20023;-76
2021/03/09 08:01:03;;;;;;;14.25;11.07;;;;;;;11.92;73.75;99820.25;5110126;28;20369;-77
2021/03/09 08:03:33;;;;;;;16.10;10.00;;;;;;;11.92;72.57;99825.84;5105830;28;20397;-73
2021/03/09 08:05:59;;;;;;;14.65;10.43;;;;;;;11.96;73.28;99826.69;5106312;28;20021;-78
2021/03/09 08:08:51;;;;;;;18.83;11.25;;;;;;;11.96;72.92;99832.25;5106799;28;20039;-73
2021/03/09 08:11:20;;;;;;;18.38;13.20;;;;;;;11.98;72.95;99829.88;5106971;28;20028;-74
2021/03/09 08:14:09;;;;;;;23.95;16.40;;;;;;;12.02;72.64;99829.94;5107897;28;20040;-73
2021/03/09 08:16:42;;;;;;;16.70;12.55;;;;;;;12.34;72.27;99824.69;5107701;28;20024;-73
2021/03/09 08:19:10;;;;;;;19.67;13.98;;;;;;;12.19;72.93;99829.31;5107557;28;20012;-73
2021/03/09 08:21:44;;;;;;;22.67;12.65;;;;;;;12.20;71.91;99830.97;5108022;28;20024;-74
2021/03/09 08:24:10;;;;;;;20.77;14.50;;;;;;;12.00;73.90;99827.53;5107911;28;20051;-81
2021/03/09 08:26:39;;;;;;;19.13;14.68;;;;;;;12.00;74.50;99826.75;5106856;28;20028;-73
2021/03/09 08:29:29;;;;;;;17.85;14.25;;;;;;;11.92;75.10;99825.84;5107388;28;20043;-74
2021/03/09 08:32:23;;;;;;;21.73;15.63;;;;;;;11.86;75.07;99824.56;5107274;28;20061;-73
2021/03/09 08:35:09;;;;;;;16.63;12.07;;;;;;;11.90;74.97;99833.78;5107542;28;20095;-73
2021/03/09 08:37:35;;;;;;;21.15;13.23;;;;;;;12.18;73.34;99821.34;5105774;28;20028;-73
2021/03/09 08:40:08;;;;;;;18.98;13.13;;;;;;;12.02;74.96;99827.94;5107186;28;20065;-77
2021/03/09 08:43:01;;;;;;;15.45;12.50;;;;;;;12.17;73.43;99826.13;5106670;28;20031;-73
2021/03/09 08:45:33;;;;;;;14.82;12.35;;;;;;;12.12;75.29;99831.25;5107379;28;20064;-75
2021/03/09 08:48:02;;;;;;;15.77;11.43;;;;;;;12.02;75.00;99830.75;5106337;28;20047;-74
2021/03/09 08:50:54;;;;;;;19.08;12.85;;;;;;;11.84;75.98;99824.16;5106753;28;20127;-74
2021/03/09 08:53:30;;;;;;;14.98;11.50;;;;;;;11.81;76.19;99794.22;5102492;28;20036;-74
2021/03/09 08:56:05;;;;;;;22.65;13.50;;;;;;;11.93;76.66;99830.25;5107283;28;20028;-74
2021/03/09 08:58:32;;;;;;;17.95;13.20;;;;;;;11.88;76.54;99827.81;5107400;28;20035;-75
2021/03/09 09:00:59;;;;;;;21.77;15.43;;;;;;;11.90;76.61;99835.78;5107564;28;20062;-74
2021/03/09 09:03:38;;;;;;;20.15;13.32;;;;;;;11.89;76.74;99836.97;5107852;28;20051;-74
2021/03/09 09:06:06;;;;;;;22.15;14.73;;;;;;;11.89;76.35;99839.75;5106548;28;20103;-78
2021/03/09 09:08:37;;;;;;;19.63;12.13;;;;;;;11.90;75.83;99839.38;5106621;28;20036;-79
2021/03/09 09:11:05;;;;;;;19.23;14.65;;;;;;;11.84;76.79;99838.09;5106575;28;20054;-73
2021/03/09 09:13:37;;;;;;;15.90;13.60;;;;;;;11.92;77.01;99836.19;5106322;28;20035;-73
2021/03/09 09:16:17;;;;;;;19.30;13.25;;;;;;;12.01;76.82;99828.34;5106856;28;20032;-79
2021/03/09 09:18:43;;;;;;;15.15;11.05;;;;;;;12.07;75.13;99827.59;5089067;28;20032;-73
2021/03/09 09:21:12;;;;;;;18.35;12.18;;;;;;;12.22;74.87;99823.00;5105636;28;20129;-74
2021/03/09 09:23:40;;;;;;;15.00;9.27;;;;;;;12.36;71.90;99821.53;5105340;28;20024;-74
2021/03/09 09:26:15;;;;;;;9.75;5.93;;;;;;;12.56;70.91;99823.72;5103792;28;20058;-77
2021/03/09 09:28:43;;;;;;;13.60;6.28;;;;;;;12.79;68.49;99825.53;5104722;28;20024;-79
2021/03/09 09:31:19;;;;;;;18.40;8.02;;;;;;;12.91;67.75;99832.78;5104010;28;20382;-73
2021/03/09 09:33:52;;;;;;;25.85;11.93;;;;;;;12.93;68.11;99822.81;5103695;28;20078;-73
2021/03/09 09:36:22;;;;;;;10.75;5.97;;;;;;;13.02;67.40;99826.09;5104105;28;20363;-73
2021/03/09 09:38:52;;;;;;;11.27;4.97;;;;;;;13.14;66.54;99822.19;5102638;28;20028;-78
2021/03/09 09:41:24;;;;;;;9.07;4.75;;;;;;;13.21;66.72;99815.81;5103624;28;20032;-77
2021/03/09 09:43:51;;;;;;;16.90;8.20;;;;;;;13.22;66.20;99817.47;5102453;28;20024;-76
2021/03/09 09:46:23;;;;;;;20.77;10.70;;;;;;;13.10;66.52;99805.41;5101489;28;20024;-75
2021/03/09 09:48:52;;;;;;;15.40;9.38;;;;;;;13.18;65.76;99802.66;5102827;28;20046;-73
2021/03/09 09:51:20;;;;;;;11.40;5.93;;;;;;;13.19;66.51;99796.66;5102671;28;20028;-73
2021/03/09 09:53:48;;;;;;;12.65;5.38;;;;;;;13.18;66.31;99794.28;5100091;28;20028;-75
2021/03/09 09:56:28;;;;;;;10.98;4.75;;;;;;;13.19;66.45;99784.69;5102310;28;20122;-74
2021/03/09 09:59:00;;;;;;;6.78;4.47;;;;;;;13.22;65.42;99783.97;5100738;28;20546;-79
2021/03/09 10:01:32;;;;;;;9.05;5.00;;;;;;;13.21;65.72;99782.31;5101876;28;20028;-74
2021/03/09 10:04:07;;;;;;;13.57;7.05;;;;;;;13.23;65.81;99782.75;5102920;28;20040;-73
2021/03/09 10:06:52;;;;;;;7.20;5.20;;;;;;;13.08;65.96;99763.09;5106008;28;20538;-75
2021/03/09 10:09:23;;;;;;;9.32;4.65;;;;;;;13.28;65.97;99777.59;5104960;28;20126;-74
2021/03/09 10:12:01;;;;;;;11.98;5.07;;;;;;;13.30;65.80;99771.63;5105129;28;20115;-79
2021/03/09 10:14:32;;;;;;;6.93;4.32;;;;;;;13.26;65.88;99774.41;5105003;28;20118;-76
2021/03/09 10:16:59;;;;;;;8.73;4.65;;;;;;;13.26;65.41;99776.38;5104484;28;20057;-77
2021/03/09 10:19:39;;;;;;;5.47;4.28;;;;;;;13.27;66.18;99772.41;5105647;28;20024;-79
2021/03/09 10:22:17;;;;;;;9.07;4.55;;;;;;;13.29;65.65;99775.59;5105078;28;20027;-73
2021/03/09 10:24:45;;;;;;;10.70;5.32;;;;;;;13.31;66.46;99770.41;5105967;28;20030;-79
2021/03/09 10:27:18;;;;;;;10.93;5.38;;;;;;;13.28;66.32;99765.63;5105892;28;20034;-74
2021/03/09 10:29:44;;;;;;;10.48;4.10;;;;;;;13.28;65.97;99763.63;5108577;28;20076;-74
2021/03/09 10:32:18;;;;;;;5.70;4.40;;;;;;;13.27;66.46;99769.63;5106704;28;20028;-74
2021/03/09 10:34:48;;;;;;;14.95;4.30;;;;;;;13.33;65.78;99771.66;5107379;28;20038;-73
2021/03/09 10:37:18;;;;;;;10.50;4.20;;;;;;;13.31;65.60;99765.63;5107165;28;20033;-73
2021/03/09 10:39:58;;;;;;;7.78;3.97;;;;;;;13.42;64.87;99760.09;5104225;28;20066;-74
2021/03/09 10:42:24;;;;;;;11.57;4.13;;;;;;;13.43;65.20;99761.72;5104903;28;20048;-79
2021/03/09 10:44:54;;;;;;;10.20;4.32;;;;;;;13.45;64.87;99759.31;5103316;28;20044;-77
2021/03/09 10:47:20;;;;;;;10.45;4.90;;;;;;;13.39;65.41;99760.88;5102992;28;20466;-77
2021/03/09 10:49:46;;;;;;;12.15;4.20;;;;;;;13.41;65.25;99758.50;5102789;28;20077;-79
2021/03/09 10:52:12;;;;;;;7.88;4.85;;;;;;;13.40;64.57;99750.50;5103024;28;20035;-74
2021/03/09 10:54:41;;;;;;;8.20;4.80;;;;;;;13.48;64.65;99752.97;5103407;28;20053;-76
2021/03/09 10:57:11;;;;;;;10.82;4.07;;;;;;;13.45;64.75;99752.94;5102034;28;20024;-76
2021/03/09 10:59:40;;;;;;;9.38;4.57;;;;;;;13.41;64.96;99746.53;5102276;28;20141;-76
2021/03/09 11:02:07;;;;;;;12.32;5.13;;;;;;;13.41;65.05;99747.31;5103192;28;20138;-75
2021/03/09 11:04:36;;;;;;;12.63;4.80;;;;;;;13.43;65.36;99744.94;5103653;28;20082;-78
2021/03/09 11:07:02;;;;;;;8.18;5.30;;;;;;;13.47;65.34;99751.31;5104252;28;20113;-72
2021/03/09 11:09:27;;;;;;;9.95;4.28;;;;;;;13.42;65.77;99754.50;5105208;28;20486;-73
2021/03/09 11:11:56;;;;;;;8.90;4.50;;;;;;;13.39;66.29;99749.72;5107749;28;20036;-74
2021/03/09 11:14:22;;;;;;;6.00;4.00;;;;;;;13.41;66.50;99747.31;5104282;28;20127;-74
2021/03/09 11:16:48;;;;;;;7.50;4.72;;;;;;;13.40;68.27;99756.09;5100568;28;20109;-76
2021/03/09 11:19:13;;;;;;;12.13;4.75;;;;;;;13.29;69.93;99762.44;5101852;28;20389;-74
2021/03/09 11:21:42;;;;;;;7.35;4.00;;;;;;;13.13;70.12;99735.97;5100810;28;20093;-73
2021/03/09 11:24:08;;;;;;;8.30;3.80;;;;;;;13.05;69.88;99752.72;5099797;28;20089;-76
2021/03/09 11:26:36;;;;;;;7.57;3.75;;;;;;;12.92;70.41;99743.03;5100102;28;20054;-76
2021/03/09 11:29:08;;;;;;;9.05;3.95;;;;;;;12.98;69.72;99729.50;5101415;28;20470;-73
2021/03/09 11:31:36;;;;;;;10.32;4.85;;;;;;;13.06;69.54;99725.56;5099771;28;20032;-79
2021/03/09 11:34:04;;;;;;;11.95;4.72;;;;;;;13.09;69.91;99728.38;5100396;28;20036;-78
2021/03/09 11:36:30;;;;;;;15.60;5.88;;;;;;;13.04;70.05;99725.94;5099800;28;20036;-78
2021/03/09 11:38:56;;;;;;;13.02;4.07;;;;;;;13.05;70.40;99708.03;5100340;28;20038;-78